createdAt,value
2023-05-09T00:01:13.396Z,80.13
2023-05-09T00:03:40.534Z,79.70
2023-05-09T00:06:07.256Z,79.56
2023-05-09T00:08:33.602Z,80.33
2023-05-09T00:10:59.908Z,79.80
2023-05-09T00:13:26.295Z,80.09
2023-05-09T00:15:54.030Z,79.85
2023-05-09T00:18:22.012Z,80.26
2023-05-09T00:20:49.014Z,80.47
2023-05-09T00:23:16.472Z,80.61
2023-05-09T00:25:43.115Z,80.40
2023-05-09T00:28:09.434Z,81.58
2023-05-09T00:30:35.788Z,81.37
2023-05-09T00:33:02.408Z,80.89
2023-05-09T00:35:29.013Z,81.38
2023-05-09T00:37:55.306Z,82.02
2023-05-09T00:40:21.693Z,80.99
2023-05-09T00:42:47.986Z,82.25
2023-05-09T00:45:14.477Z,81.98
2023-05-09T00:47:41.159Z,82.03
2023-05-09T00:50:08.820Z,82.22
2023-05-09T00:52:36.002Z,81.88
2023-05-09T00:55:02.577Z,82.08
2023-05-09T00:57:29.029Z,82.36
2023-05-09T00:59:55.459Z,82.43
2023-05-09T01:02:22.014Z,82.17
2023-05-09T01:04:48.461Z,82.57
2023-05-09T01:07:48.646Z,83.19
2023-05-09T01:10:58.236Z,82.06
2023-05-09T01:13:35.595Z,82.27
2023-05-09T01:16:16.273Z,83.11
2023-05-09T01:18:48.911Z,82.51
2023-05-09T01:21:24.034Z,82.03
2023-05-09T01:24:17.732Z,82.81
2023-05-09T01:26:57.871Z,82.44
2023-05-09T01:29:33.155Z,82.41
2023-05-09T01:32:04.545Z,82.35
2023-05-09T01:34:33.728Z,81.64
2023-05-09T01:37:02.151Z,82.25
2023-05-09T01:39:31.750Z,81.57
2023-05-09T01:42:01.881Z,82.39
2023-05-09T01:44:35.293Z,81.81
2023-05-09T01:47:04.210Z,82.08
2023-05-09T01:49:33.422Z,81.99
2023-05-09T01:52:03.670Z,81.27
2023-05-09T01:54:30.896Z,82.60
2023-05-09T01:56:59.094Z,82.47
2023-05-09T01:59:27.893Z,82.52
2023-05-09T02:01:55.695Z,81.80
2023-05-09T02:04:22.352Z,82.96
2023-05-09T02:06:51.321Z,82.86
2023-05-09T02:09:19.245Z,82.64
2023-05-09T02:11:46.697Z,82.65
2023-05-09T02:14:13.849Z,82.74
2023-05-09T02:16:40.912Z,82.59
2023-05-09T02:19:07.368Z,82.64
2023-05-09T02:21:33.828Z,83.72
2023-05-09T02:24:00.333Z,83.78
2023-05-09T02:26:26.757Z,83.67
2023-05-09T02:28:54.078Z,84.23
2023-05-09T02:31:22.645Z,84.13
2023-05-09T02:33:50.153Z,84.39
2023-05-09T02:36:17.200Z,84.32
2023-05-09T02:38:44.126Z,84.25
2023-05-09T02:41:16.337Z,84.21
2023-05-09T02:43:43.036Z,83.95
2023-05-09T02:46:10.421Z,83.93
2023-05-09T02:48:36.943Z,84.41
2023-05-09T02:51:03.282Z,84.36
2023-05-09T02:53:29.565Z,84.36
2023-05-09T02:55:55.845Z,84.47
2023-05-09T02:58:22.145Z,84.98
2023-05-09T03:00:48.454Z,84.84
2023-05-09T03:03:14.925Z,85.48
2023-05-09T03:05:41.245Z,85.14
2023-05-09T03:08:07.533Z,85.60
2023-05-09T03:10:34.132Z,85.42
2023-05-09T03:13:00.819Z,85.48
2023-05-09T03:15:27.169Z,86.09
2023-05-09T03:17:53.586Z,85.85
2023-05-09T03:20:20.097Z,85.76
2023-05-09T03:22:48.252Z,85.62
2023-05-09T03:25:14.706Z,86.29
2023-05-09T03:27:41.085Z,85.61
2023-05-09T03:30:08.066Z,86.16
2023-05-09T03:32:34.407Z,85.52
2023-05-09T03:35:00.704Z,86.15
2023-05-09T03:37:27.309Z,85.83
2023-05-09T03:39:53.776Z,85.89
2023-05-09T03:42:20.238Z,85.83
2023-05-09T03:44:46.618Z,86.01
2023-05-09T03:47:12.994Z,86.34
2023-05-09T03:49:39.332Z,86.39
2023-05-09T03:52:05.792Z,86.07
2023-05-09T03:54:32.097Z,85.87
2023-05-09T03:56:58.400Z,85.87
2023-05-09T03:59:24.725Z,86.55
2023-05-09T04:01:51.206Z,86.01
2023-05-09T04:04:17.659Z,85.47
2023-05-09T04:06:43.974Z,85.59
2023-05-09T04:09:10.518Z,86.13
2023-05-09T04:11:36.737Z,86.34
2023-05-09T04:14:06.853Z,85.67
2023-05-09T04:16:33.464Z,86.31
2023-05-09T04:18:59.887Z,86.47
2023-05-09T04:21:26.271Z,86.69
2023-05-09T04:23:52.697Z,85.74
2023-05-09T04:26:19.006Z,86.23
2023-05-09T04:28:45.265Z,86.06
2023-05-09T04:31:12.847Z,86.44
2023-05-09T04:33:39.357Z,86.50
2023-05-09T04:36:06.091Z,86.08
2023-05-09T04:38:32.374Z,85.99
2023-05-09T04:40:58.759Z,86.20
2023-05-09T04:43:27.851Z,85.86
2023-05-09T04:45:54.321Z,86.34
2023-05-09T04:48:20.637Z,85.56
2023-05-09T04:50:48.447Z,85.64
2023-05-09T04:53:14.793Z,85.62
2023-05-09T04:55:41.052Z,85.48
2023-05-09T04:58:09.079Z,85.02
2023-05-09T05:00:35.720Z,85.15
2023-05-09T05:03:02.168Z,84.69
2023-05-09T05:05:28.588Z,84.49
2023-05-09T05:07:55.407Z,84.25
2023-05-09T05:10:21.698Z,84.88
2023-05-09T05:12:48.019Z,84.80
2023-05-09T05:15:14.647Z,84.71
2023-05-09T05:17:41.161Z,84.51
2023-05-09T05:20:10.388Z,84.63
2023-05-09T05:22:36.679Z,84.40
2023-05-09T05:25:04.498Z,83.29
2023-05-09T05:27:31.287Z,83.61
2023-05-09T05:29:57.694Z,82.61
2023-05-09T05:32:24.090Z,83.00
2023-05-09T05:34:50.473Z,82.23
2023-05-09T05:37:16.819Z,82.14
2023-05-09T05:39:43.175Z,82.89
2023-05-09T05:42:09.467Z,81.69
2023-05-09T05:44:35.744Z,81.76
2023-05-09T05:47:02.024Z,81.86
2023-05-09T05:49:28.359Z,81.67
2023-05-09T05:51:54.655Z,81.21
2023-05-09T05:54:20.985Z,81.81
2023-05-09T05:56:47.257Z,80.76
2023-05-09T05:59:13.725Z,79.83
2023-05-09T06:01:39.991Z,79.17
2023-05-09T06:04:06.443Z,78.79
2023-05-09T06:06:32.753Z,78.27
2023-05-09T06:08:59.047Z,77.27
2023-05-09T06:11:25.400Z,76.73
2023-05-09T06:13:51.711Z,76.97
2023-05-09T06:16:19.998Z,75.92
2023-05-09T06:18:47.698Z,75.84
2023-05-09T06:21:14.027Z,76.45
2023-05-09T06:23:47.274Z,75.39
2023-05-09T06:26:23.714Z,75.39
2023-05-09T06:28:50.105Z,75.24
2023-05-09T06:31:16.440Z,74.79
2023-05-09T06:33:42.773Z,75.28
2023-05-09T06:36:09.193Z,73.75
2023-05-09T06:38:35.414Z,72.89
2023-05-09T06:41:01.692Z,72.41
2023-05-09T06:43:27.977Z,72.30
2023-05-09T06:45:54.294Z,72.50
2023-05-09T06:48:20.693Z,73.38
2023-05-09T06:50:47.043Z,73.56
2023-05-09T06:53:13.576Z,73.50
2023-05-09T06:55:40.002Z,73.07
2023-05-09T06:58:06.328Z,72.47
2023-05-09T07:00:32.633Z,72.36
2023-05-09T07:02:58.975Z,71.56
2023-05-09T07:05:25.301Z,71.73
2023-05-09T07:07:51.679Z,71.32
2023-05-09T07:10:17.980Z,71.76
2023-05-09T07:12:44.353Z,70.68
2023-05-09T07:15:11.088Z,70.73
2023-05-09T07:17:37.540Z,70.73
2023-05-09T07:20:04.759Z,70.79
2023-05-09T07:22:32.132Z,70.86
2023-05-09T07:24:59.369Z,71.69
2023-05-09T07:27:25.684Z,70.57
2023-05-09T07:29:52.554Z,71.20
2023-05-09T07:32:19.449Z,71.28
2023-05-09T07:34:45.719Z,70.05
2023-05-09T07:37:13.674Z,70.05
2023-05-09T07:39:41.655Z,70.90
2023-05-09T07:42:08.375Z,70.21
2023-05-09T07:44:34.663Z,70.24
2023-05-09T07:47:02.428Z,70.05
2023-05-09T07:49:28.712Z,70.60
2023-05-09T07:51:54.927Z,71.16
2023-05-09T07:54:21.273Z,71.62
2023-05-09T07:56:47.542Z,72.20
2023-05-09T07:59:13.833Z,72.66
2023-05-09T08:01:40.348Z,72.16
2023-05-09T08:04:08.886Z,72.13
2023-05-09T08:06:35.895Z,71.16
2023-05-09T08:09:02.237Z,71.13
2023-05-09T08:11:28.928Z,71.31
2023-05-09T08:13:55.212Z,71.18
2023-05-09T08:16:21.564Z,71.32
2023-05-09T08:18:47.934Z,71.43
2023-05-09T08:21:14.293Z,70.87
2023-05-09T08:23:41.182Z,71.53
2023-05-09T08:26:07.639Z,71.64
2023-05-09T08:28:34.171Z,72.05
2023-05-09T08:31:00.599Z,72.03
2023-05-09T08:33:26.951Z,72.16
2023-05-09T08:35:53.596Z,72.20
2023-05-09T08:38:20.429Z,72.21
2023-05-09T08:40:47.060Z,72.23
2023-05-09T08:43:15.929Z,71.48
2023-05-09T08:45:54.153Z,71.10
2023-05-09T08:48:22.108Z,70.63
2023-05-09T08:50:49.142Z,70.59
2023-05-09T08:53:15.746Z,70.58
2023-05-09T08:55:42.233Z,71.87
2023-05-09T08:58:09.544Z,71.03
2023-05-09T09:00:37.452Z,71.42
2023-05-09T09:03:04.101Z,72.15
2023-05-09T09:05:41.326Z,71.78
2023-05-09T09:08:10.078Z,71.66
2023-05-09T09:10:40.508Z,70.90
2023-05-09T09:13:07.414Z,71.35
2023-05-09T09:15:36.754Z,71.82
2023-05-09T09:18:09.724Z,71.63
2023-05-09T09:20:41.553Z,70.93
2023-05-09T09:23:10.543Z,70.60
2023-05-09T09:25:37.084Z,70.47
2023-05-09T09:28:04.917Z,70.49
2023-05-09T09:30:31.204Z,70.77
2023-05-09T09:33:00.502Z,69.73
2023-05-09T09:35:26.938Z,69.65
2023-05-09T09:37:58.509Z,70.28
2023-05-09T09:40:26.665Z,70.26
2023-05-09T09:42:52.997Z,69.82
2023-05-09T09:45:19.906Z,70.06
2023-05-09T09:47:48.038Z,69.70
2023-05-09T09:50:19.259Z,69.37
2023-05-09T09:52:53.681Z,69.66
2023-05-09T09:55:21.981Z,70.75
2023-05-09T09:57:48.761Z,70.28
2023-05-09T10:00:17.295Z,70.09
2023-05-09T10:02:50.810Z,70.90
2023-05-09T10:05:23.792Z,69.73
2023-05-09T10:07:54.914Z,69.16
2023-05-09T10:10:21.760Z,69.55
2023-05-09T10:12:50.405Z,69.35
2023-05-09T10:15:21.690Z,68.46
2023-05-09T10:17:53.657Z,67.28
2023-05-09T10:20:20.340Z,67.61
2023-05-09T10:22:46.963Z,66.42
2023-05-09T10:25:22.867Z,66.62
2023-05-09T10:27:52.259Z,63.98
2023-05-09T10:30:23.806Z,64.08
2023-05-09T10:32:53.917Z,64.58
2023-05-09T10:35:26.160Z,64.79
2023-05-09T10:37:56.481Z,64.19
2023-05-09T10:40:23.556Z,65.01
2023-05-09T10:42:50.255Z,64.92
2023-05-09T10:45:16.952Z,65.05
2023-05-09T10:47:45.029Z,63.83
2023-05-09T10:50:13.065Z,62.65
2023-05-09T10:53:05.524Z,62.41
2023-05-09T10:55:51.029Z,61.68
2023-05-09T10:58:28.742Z,62.53
2023-05-09T11:01:00.089Z,62.27
2023-05-09T11:03:28.116Z,61.34
2023-05-09T11:05:56.839Z,60.78
2023-05-09T11:08:23.421Z,60.96
2023-05-09T11:10:49.753Z,59.10
2023-05-09T11:13:25.343Z,57.70
2023-05-09T11:16:00.684Z,57.62
2023-05-09T11:18:32.695Z,58.11
2023-05-09T11:21:06.768Z,57.48
2023-05-09T11:23:33.185Z,56.19
2023-05-09T11:26:07.746Z,57.76
2023-05-09T11:28:36.317Z,57.59
2023-05-09T11:31:16.110Z,57.52
2023-05-09T11:33:47.670Z,56.64
2023-05-09T11:36:24.980Z,57.37
2023-05-09T11:39:01.939Z,57.61
2023-05-09T11:41:29.187Z,58.50
2023-05-09T11:43:56.793Z,58.25
2023-05-09T11:46:23.168Z,58.65
2023-05-09T11:48:49.694Z,59.53
2023-05-09T11:51:18.013Z,60.38
2023-05-09T11:53:46.774Z,59.88
2023-05-09T11:56:14.559Z,60.17
2023-05-09T11:58:40.997Z,60.32
2023-05-09T12:01:08.723Z,60.59
2023-05-09T12:03:35.933Z,59.21
2023-05-09T12:06:02.512Z,59.25
2023-05-09T12:08:29.065Z,59.10
2023-05-09T12:10:55.497Z,57.73
2023-05-09T12:13:21.807Z,58.09
2023-05-09T12:15:48.462Z,57.55
2023-05-09T12:18:16.957Z,57.22
2023-05-09T12:20:48.253Z,57.97
2023-05-09T12:23:15.102Z,58.67
2023-05-09T12:25:55.401Z,58.16
2023-05-09T12:28:23.750Z,57.08
2023-05-09T12:30:51.518Z,57.25
2023-05-09T12:33:18.541Z,54.03
2023-05-09T12:35:46.732Z,54.09
2023-05-09T12:38:21.519Z,53.38
2023-05-09T12:40:48.707Z,55.01
2023-05-09T12:43:17.662Z,54.00
2023-05-09T12:45:44.076Z,53.03
2023-05-09T12:48:11.762Z,54.67
2023-05-09T12:50:38.170Z,54.57
2023-05-09T12:53:04.590Z,52.64
2023-05-09T12:55:31.698Z,52.99
2023-05-09T12:58:00.542Z,52.15
2023-05-09T13:00:27.145Z,49.91
2023-05-09T13:02:53.811Z,51.53
2023-05-09T13:05:22.181Z,53.47
2023-05-09T13:07:52.040Z,52.16
2023-05-09T13:10:27.273Z,51.76
2023-05-09T13:12:53.805Z,51.56
2023-05-09T13:15:22.429Z,52.34
2023-05-09T13:17:51.076Z,53.86
2023-05-09T13:20:18.401Z,53.30
2023-05-09T13:22:46.288Z,53.14
2023-05-09T13:25:12.849Z,53.22
2023-05-09T13:27:39.339Z,54.51
2023-05-09T13:30:07.656Z,54.59
2023-05-09T13:32:35.019Z,53.25
2023-05-09T13:35:01.426Z,52.87
2023-05-09T13:37:28.123Z,52.86
2023-05-09T13:39:55.298Z,53.10
2023-05-09T13:42:21.624Z,52.91
2023-05-09T13:44:47.925Z,53.22
2023-05-09T13:47:14.198Z,53.95
2023-05-09T13:49:40.495Z,53.58
2023-05-09T13:52:06.836Z,53.98
2023-05-09T13:54:35.035Z,54.86
2023-05-09T13:57:04.822Z,54.11
2023-05-09T13:59:31.549Z,54.48
2023-05-09T14:01:59.700Z,53.03
2023-05-09T14:04:27.238Z,51.58
2023-05-09T14:06:56.728Z,52.40
2023-05-09T14:09:23.141Z,52.49
2023-05-09T14:11:51.539Z,51.62
2023-05-09T14:14:21.366Z,50.47
2023-05-09T14:16:48.359Z,50.32
2023-05-09T14:19:15.518Z,50.43
2023-05-09T14:21:42.952Z,52.55
2023-05-09T14:24:10.704Z,52.14
2023-05-09T14:26:36.996Z,53.06
2023-05-09T14:29:04.546Z,53.94
2023-05-09T14:31:31.211Z,54.12
2023-05-09T14:33:58.839Z,54.71
2023-05-09T14:36:25.866Z,55.52
2023-05-09T14:38:52.462Z,57.72
2023-05-09T14:41:21.331Z,59.72
2023-05-09T14:43:48.479Z,64.81
2023-05-09T14:46:14.848Z,71.01
2023-05-09T14:48:41.516Z,72.49
2023-05-09T14:51:08.390Z,70.76
2023-05-09T14:53:41.517Z,72.52
2023-05-09T14:56:10.322Z,76.22
2023-05-09T14:58:36.930Z,79.00
2023-05-09T15:01:07.000Z,80.96
2023-05-09T15:03:33.514Z,82.67
2023-05-09T15:05:59.803Z,83.88
2023-05-09T15:08:26.860Z,84.22
2023-05-09T15:10:53.215Z,84.69
2023-05-09T15:13:19.595Z,84.52
2023-05-09T15:15:46.083Z,84.71
2023-05-09T15:18:13.249Z,85.21
2023-05-09T15:20:39.711Z,85.35
2023-05-09T15:23:07.582Z,85.21
2023-05-09T15:25:34.557Z,84.62
2023-05-09T15:28:01.287Z,84.39
2023-05-09T15:30:28.072Z,85.03
2023-05-09T15:32:54.458Z,85.28
2023-05-09T15:35:20.946Z,85.38
2023-05-09T15:37:47.288Z,84.87
2023-05-09T15:40:13.767Z,85.06
2023-05-09T15:42:40.377Z,85.55
2023-05-09T15:45:07.508Z,85.70
2023-05-09T15:47:33.907Z,85.83
2023-05-09T15:50:00.337Z,85.69
2023-05-09T15:52:27.710Z,85.84
2023-05-09T15:54:55.813Z,85.83
2023-05-09T15:57:23.153Z,86.16
2023-05-09T15:59:49.511Z,85.66
2023-05-09T16:02:15.907Z,85.88
2023-05-09T16:04:43.835Z,85.59
2023-05-09T16:07:10.110Z,85.68
2023-05-09T16:09:37.169Z,84.30
2023-05-09T16:12:04.157Z,84.39
2023-05-09T16:14:31.162Z,84.71
2023-05-09T16:16:57.532Z,85.03
2023-05-09T16:19:23.784Z,85.04
2023-05-09T16:21:50.074Z,85.25
2023-05-09T16:24:16.691Z,85.02
2023-05-09T16:26:42.994Z,82.73
2023-05-09T16:29:09.809Z,81.93
2023-05-09T16:31:36.253Z,83.46
2023-05-09T16:34:02.916Z,84.27
2023-05-09T16:36:30.261Z,84.66
2023-05-09T16:38:56.628Z,85.06
2023-05-09T16:41:23.019Z,85.81
2023-05-09T16:43:49.419Z,86.30
2023-05-09T16:46:16.174Z,86.60
2023-05-09T16:48:42.628Z,86.95
2023-05-09T16:51:09.116Z,86.63
2023-05-09T16:53:36.223Z,86.99
2023-05-09T16:56:03.836Z,86.92
2023-05-09T16:58:30.270Z,86.86
2023-05-09T17:00:57.035Z,87.23
2023-05-09T17:03:23.807Z,86.74
2023-05-09T17:05:51.130Z,86.95
2023-05-09T17:08:17.468Z,86.53
2023-05-09T17:10:43.687Z,86.71
2023-05-09T17:13:10.252Z,86.64
2023-05-09T17:15:38.223Z,86.66
2023-05-09T17:18:04.968Z,86.96
2023-05-09T17:20:31.706Z,86.06
2023-05-09T17:22:58.028Z,84.99
2023-05-09T17:25:24.234Z,84.49
2023-05-09T17:27:50.532Z,81.72
2023-05-09T17:30:18.339Z,81.83
2023-05-09T17:32:45.835Z,83.02
2023-05-09T17:35:13.573Z,83.49
2023-05-09T17:37:39.944Z,84.78
2023-05-09T17:40:07.799Z,85.70
2023-05-09T17:42:34.110Z,86.24
2023-05-09T17:45:00.445Z,86.68
2023-05-09T17:47:27.344Z,86.35
2023-05-09T17:49:53.640Z,85.14
2023-05-09T17:52:19.902Z,84.12
2023-05-09T17:54:46.686Z,84.07
2023-05-09T17:57:12.991Z,81.71
2023-05-09T17:59:41.279Z,84.85
2023-05-09T18:02:08.028Z,85.49
2023-05-09T18:04:34.592Z,86.32
2023-05-09T18:07:01.439Z,87.11
2023-05-09T18:09:28.066Z,86.89
2023-05-09T18:11:54.497Z,87.13
2023-05-09T18:14:20.802Z,87.85
2023-05-09T18:16:47.151Z,88.12
2023-05-09T18:19:13.497Z,87.97
2023-05-09T18:21:39.891Z,88.41
2023-05-09T18:24:07.517Z,89.10
2023-05-09T18:26:33.897Z,89.60
2023-05-09T18:29:00.237Z,89.43
2023-05-09T18:31:26.674Z,88.41
2023-05-09T18:33:52.909Z,88.86
2023-05-09T18:36:19.207Z,89.02
2023-05-09T18:38:46.567Z,88.64
2023-05-09T18:41:15.449Z,88.98
2023-05-09T18:43:46.127Z,89.55
2023-05-09T18:46:17.254Z,88.49
2023-05-09T18:48:45.114Z,89.00
2023-05-09T18:51:12.095Z,88.40
2023-05-09T18:53:38.521Z,88.07
2023-05-09T18:56:05.120Z,88.17
2023-05-09T18:58:32.409Z,87.15
2023-05-09T19:00:58.875Z,86.77
2023-05-09T19:03:25.412Z,87.32
2023-05-09T19:05:51.660Z,87.54
2023-05-09T19:08:17.990Z,88.37
2023-05-09T19:10:44.761Z,87.79
2023-05-09T19:13:11.955Z,87.24
2023-05-09T19:15:39.697Z,86.47
2023-05-09T19:18:06.257Z,85.39
2023-05-09T19:20:32.575Z,84.99
2023-05-09T19:22:59.137Z,85.13
2023-05-09T19:25:25.941Z,85.25
2023-05-09T19:27:55.520Z,85.49
2023-05-09T19:30:22.010Z,85.65
2023-05-09T19:32:48.242Z,86.93
2023-05-09T19:35:14.683Z,87.62
2023-05-09T19:37:40.963Z,88.41
2023-05-09T19:40:07.855Z,87.80
2023-05-09T19:42:35.200Z,88.08
2023-05-09T19:45:01.862Z,88.58
2023-05-09T19:47:28.266Z,89.36
2023-05-09T19:49:54.615Z,89.44
2023-05-09T19:52:21.031Z,89.73
2023-05-09T19:54:47.291Z,89.80
2023-05-09T19:57:13.662Z,90.43
2023-05-09T19:59:40.080Z,89.19
2023-05-09T20:02:06.836Z,89.18
2023-05-09T20:04:35.107Z,89.25
2023-05-09T20:07:02.452Z,90.33
2023-05-09T20:09:30.316Z,89.98
2023-05-09T20:11:56.605Z,89.10
2023-05-09T20:14:23.007Z,89.69
2023-05-09T20:16:49.398Z,89.34
2023-05-09T20:19:15.884Z,88.91
2023-05-09T20:21:42.115Z,89.45
2023-05-09T20:24:08.917Z,89.24
2023-05-09T20:26:35.229Z,89.49
2023-05-09T20:29:01.656Z,89.26
2023-05-09T20:31:29.018Z,89.81
2023-05-09T20:33:55.626Z,89.59
2023-05-09T20:36:21.921Z,90.24
2023-05-09T20:38:48.273Z,90.06
2023-05-09T20:41:14.651Z,90.20
2023-05-09T20:43:40.905Z,90.23
2023-05-09T20:46:07.235Z,90.74
2023-05-09T20:48:33.608Z,89.94
2023-05-09T20:50:59.928Z,89.94
2023-05-09T20:53:27.532Z,90.30
2023-05-09T20:55:53.869Z,89.61
2023-05-09T20:58:20.305Z,90.74
2023-05-09T21:00:47.069Z,90.55
2023-05-09T21:03:13.736Z,91.10
2023-05-09T21:05:40.771Z,90.47
2023-05-09T21:08:07.107Z,90.78
2023-05-09T21:10:33.430Z,91.39
2023-05-09T21:12:59.774Z,90.68
2023-05-09T21:15:26.066Z,90.74
2023-05-09T21:17:52.392Z,91.15
2023-05-09T21:20:18.938Z,91.73
2023-05-09T21:22:46.002Z,91.06
2023-05-09T21:25:12.827Z,91.30
2023-05-09T21:27:39.113Z,91.44
2023-05-09T21:30:06.342Z,91.56
2023-05-09T21:32:32.670Z,91.50
2023-05-09T21:34:59.035Z,91.60
2023-05-09T21:37:25.501Z,91.14
2023-05-09T21:39:51.799Z,90.97
2023-05-09T21:42:18.156Z,90.71
2023-05-09T21:44:45.003Z,90.48
2023-05-09T21:47:11.613Z,91.56
2023-05-09T21:49:38.600Z,91.56
2023-05-09T21:52:04.888Z,90.94
2023-05-09T21:54:31.175Z,91.67
2023-05-09T21:56:57.433Z,91.83
2023-05-09T21:59:23.714Z,91.89
2023-05-09T22:01:50.090Z,91.31
2023-05-09T22:04:16.388Z,91.76
2023-05-09T22:06:42.881Z,91.67
2023-05-09T22:09:09.522Z,91.00
2023-05-09T22:11:36.419Z,91.61
2023-05-09T22:14:03.529Z,91.66
2023-05-09T22:16:30.241Z,91.39
2023-05-09T22:18:56.930Z,91.48
2023-05-09T22:21:23.249Z,91.12
2023-05-09T22:23:49.560Z,89.90
2023-05-09T22:26:15.827Z,90.73
2023-05-09T22:28:42.170Z,90.64
2023-05-09T22:31:08.671Z,90.55
2023-05-09T22:33:34.954Z,91.09
2023-05-09T22:36:01.539Z,90.83
2023-05-09T22:38:27.779Z,91.15
2023-05-09T22:40:54.046Z,91.02
2023-05-09T22:43:20.369Z,91.73
2023-05-09T22:45:46.877Z,91.42
2023-05-09T22:48:13.105Z,90.56
2023-05-09T22:50:39.450Z,89.85
2023-05-09T22:53:05.770Z,90.14
2023-05-09T22:55:32.073Z,90.87
2023-05-09T22:57:58.330Z,90.26
2023-05-09T23:00:24.640Z,89.76
2023-05-09T23:02:51.084Z,89.25
2023-05-09T23:05:17.433Z,88.55
2023-05-09T23:07:44.256Z,87.53
2023-05-09T23:10:10.570Z,87.76
2023-05-09T23:12:37.969Z,87.17
2023-05-09T23:15:06.237Z,86.79
2023-05-09T23:17:32.574Z,88.03
2023-05-09T23:20:00.555Z,86.99
2023-05-09T23:22:27.001Z,87.76
2023-05-09T23:24:53.259Z,87.02
2023-05-09T23:27:19.533Z,87.95
2023-05-09T23:29:45.797Z,87.85
2023-05-09T23:32:12.072Z,88.07
2023-05-09T23:34:38.817Z,87.06
2023-05-09T23:37:05.097Z,87.63
2023-05-09T23:39:31.821Z,87.37
2023-05-09T23:41:58.164Z,87.35
2023-05-09T23:44:24.473Z,88.08
2023-05-09T23:46:50.825Z,87.81
2023-05-09T23:49:17.179Z,86.88
2023-05-09T23:51:43.603Z,87.50
2023-05-09T23:54:09.873Z,87.50
2023-05-09T23:56:36.205Z,87.41
2023-05-09T23:59:02.525Z,86.90
